createdAt,value
2022-10-03T00:00:14.159Z,12.61
2022-10-03T00:03:21.664Z,12.56
2022-10-03T00:05:58.552Z,12.61
2022-10-03T00:08:43.374Z,12.72
2022-10-03T00:11:21.939Z,12.70
2022-10-03T00:13:52.919Z,12.54
2022-10-03T00:16:24.990Z,12.54
2022-10-03T00:18:58.439Z,12.58
2022-10-03T00:21:39.928Z,12.51
2022-10-03T00:24:17.931Z,12.41
2022-10-03T00:26:49.050Z,12.42
2022-10-03T00:29:26.270Z,12.38
2022-10-03T00:31:59.467Z,12.22
2022-10-03T00:34:36.130Z,12.26
2022-10-03T00:37:18.613Z,12.19
2022-10-03T00:39:59.922Z,12.28
2022-10-03T00:42:52.462Z,12.25
2022-10-03T00:45:55.468Z,12.29
2022-10-03T00:49:02.458Z,12.48
2022-10-03T00:51:40.678Z,12.62
2022-10-03T00:54:26.426Z,12.71
2022-10-03T00:57:23.944Z,12.77
2022-10-03T01:00:13.716Z,12.74
2022-10-03T01:02:48.747Z,12.76
2022-10-03T01:05:25.340Z,12.79
2022-10-03T01:08:07.925Z,12.78
2022-10-03T01:10:40.991Z,12.74
2022-10-03T01:13:22.227Z,12.76
2022-10-03T01:15:54.456Z,12.85
2022-10-03T01:18:33.186Z,12.97
2022-10-03T01:21:08.945Z,12.91
2022-10-03T01:23:49.995Z,12.98
2022-10-03T01:26:28.505Z,12.89
2022-10-03T01:29:17.645Z,12.96
2022-10-03T01:31:50.261Z,12.34
2022-10-03T01:34:24.378Z,12.18
2022-10-03T01:37:02.378Z,12.32
2022-10-03T01:39:35.768Z,12.63
2022-10-03T01:42:08.368Z,12.90
2022-10-03T01:44:46.428Z,13.27
2022-10-03T01:47:21.490Z,13.24
2022-10-03T01:49:55.036Z,13.41
2022-10-03T01:52:28.960Z,12.86
2022-10-03T01:55:01.762Z,12.95
2022-10-03T01:57:35.182Z,13.22
2022-10-03T02:00:07.537Z,13.36
2022-10-03T02:02:44.321Z,13.45
2022-10-03T02:05:19.299Z,13.37
2022-10-03T02:07:51.890Z,13.24
2022-10-03T02:10:26.401Z,13.40
2022-10-03T02:13:01.962Z,13.12
2022-10-03T02:15:36.158Z,13.30
2022-10-03T02:18:13.382Z,13.47
2022-10-03T02:20:47.034Z,13.37
2022-10-03T02:23:26.625Z,13.55
2022-10-03T02:26:01.639Z,13.93
2022-10-03T02:28:45.131Z,13.95
2022-10-03T02:31:45.711Z,13.91
2022-10-03T02:34:57.606Z,13.77
2022-10-03T02:38:05.488Z,13.72
2022-10-03T02:41:10.302Z,13.70
2022-10-03T02:43:57.570Z,13.64
2022-10-03T02:47:03.964Z,13.68
2022-10-03T02:49:52.600Z,13.57
2022-10-03T02:53:00.422Z,13.36
2022-10-03T02:55:43.271Z,13.43
2022-10-03T02:58:48.073Z,13.47
2022-10-03T03:01:48.688Z,13.41
2022-10-03T03:05:07.674Z,12.88
2022-10-03T03:07:44.752Z,12.45
2022-10-03T03:10:33.620Z,12.70
2022-10-03T03:13:37.074Z,12.82
2022-10-03T03:16:48.637Z,12.80
2022-10-03T03:19:29.935Z,12.92
2022-10-03T03:22:05.753Z,12.79
2022-10-03T03:24:49.745Z,12.78
2022-10-03T03:27:47.770Z,12.75
2022-10-03T03:30:17.971Z,12.56
2022-10-03T03:33:05.088Z,12.41
2022-10-03T03:35:43.508Z,12.89
2022-10-03T03:38:21.788Z,12.63
2022-10-03T03:41:00.331Z,12.73
2022-10-03T03:43:45.377Z,12.75
2022-10-03T03:46:24.160Z,12.72
2022-10-03T03:49:02.110Z,12.64
2022-10-03T03:51:35.053Z,12.55
2022-10-03T03:54:31.054Z,12.56
2022-10-03T03:57:26.683Z,12.62
2022-10-03T04:00:07.757Z,12.62
2022-10-03T04:02:48.318Z,12.73
2022-10-03T04:05:26.116Z,12.85
2022-10-03T04:08:12.217Z,12.78
2022-10-03T04:10:53.332Z,12.87
2022-10-03T04:13:38.017Z,12.82
2022-10-03T04:16:50.698Z,12.88
2022-10-03T04:19:26.277Z,13.04
2022-10-03T04:22:12.709Z,13.01
2022-10-03T04:25:15.855Z,13.00
2022-10-03T04:28:05.730Z,13.17
2022-10-03T04:30:37.418Z,13.33
2022-10-03T04:33:13.691Z,13.44
2022-10-03T04:36:08.075Z,13.40
2022-10-03T04:38:44.361Z,13.47
2022-10-03T04:41:23.503Z,13.31
2022-10-03T04:44:00.245Z,13.47
2022-10-03T04:46:32.399Z,13.57
2022-10-03T04:49:06.350Z,13.65
2022-10-03T04:51:43.827Z,13.71
2022-10-03T04:54:17.597Z,13.82
2022-10-03T04:56:52.325Z,13.72
2022-10-03T04:59:41.363Z,13.74
2022-10-03T05:02:18.004Z,13.80
2022-10-03T05:05:02.435Z,13.85
2022-10-03T05:07:34.219Z,13.72
2022-10-03T05:10:11.428Z,13.77
2022-10-03T05:12:44.958Z,13.94
2022-10-03T05:15:20.945Z,13.89
2022-10-03T05:17:54.256Z,13.65
2022-10-03T05:20:31.006Z,13.68
2022-10-03T05:23:03.909Z,13.98
2022-10-03T05:25:42.015Z,13.72
2022-10-03T05:28:18.848Z,13.54
2022-10-03T05:30:53.384Z,13.90
2022-10-03T05:33:28.438Z,13.63
2022-10-03T05:36:07.754Z,13.76
2022-10-03T05:39:01.298Z,14.02
2022-10-03T05:41:31.850Z,13.99
2022-10-03T05:44:05.339Z,13.74
2022-10-03T05:46:48.042Z,13.93
2022-10-03T05:49:34.797Z,13.87
2022-10-03T05:52:18.644Z,13.81
2022-10-03T05:55:05.438Z,13.66
2022-10-03T05:58:10.428Z,13.62
2022-10-03T06:00:52.066Z,13.65
2022-10-03T06:03:47.263Z,13.57
2022-10-03T06:06:20.968Z,13.60
2022-10-03T06:08:57.337Z,13.69
2022-10-03T06:11:40.364Z,13.53
2022-10-03T06:14:30.502Z,13.36
2022-10-03T06:17:10.210Z,13.52
2022-10-03T06:19:49.655Z,13.20
2022-10-03T06:22:40.526Z,13.28
2022-10-03T06:25:30.137Z,13.36
2022-10-03T06:28:30.133Z,13.35
2022-10-03T06:31:12.276Z,13.62
2022-10-03T06:34:33.782Z,13.80
2022-10-03T06:37:27.591Z,13.43
2022-10-03T06:40:32.801Z,13.57
2022-10-03T06:43:39.712Z,13.28
2022-10-03T06:46:51.792Z,13.16
2022-10-03T06:49:37.185Z,12.89
2022-10-03T06:52:28.501Z,13.16
2022-10-03T06:55:29.538Z,13.45
2022-10-03T06:58:48.793Z,13.23
2022-10-03T07:01:44.442Z,13.09
2022-10-03T07:04:34.862Z,13.16
2022-10-03T07:07:18.082Z,13.45
2022-10-03T07:10:12.613Z,13.41
2022-10-03T07:13:15.314Z,13.47
2022-10-03T07:16:14.309Z,13.49
2022-10-03T07:19:01.594Z,14.24
2022-10-03T07:22:08.186Z,13.74
2022-10-03T07:25:14.980Z,13.68
2022-10-03T07:27:55.297Z,14.06
2022-10-03T07:30:23.718Z,13.72
2022-10-03T07:33:38.040Z,13.82
2022-10-03T07:36:59.313Z,14.75
2022-10-03T07:39:43.365Z,14.60
2022-10-03T07:42:36.692Z,14.56
2022-10-03T07:45:22.952Z,14.95
2022-10-03T07:48:22.856Z,15.41
2022-10-03T07:51:12.065Z,15.72
2022-10-03T07:54:24.740Z,15.35
2022-10-03T07:57:14.692Z,14.83
2022-10-03T08:00:12.133Z,14.71
2022-10-03T08:03:09.843Z,15.22
2022-10-03T08:06:00.616Z,14.83
2022-10-03T08:08:50.587Z,14.41
2022-10-03T08:11:33.441Z,14.57
2022-10-03T08:14:16.870Z,14.89
2022-10-03T08:17:03.918Z,15.08
2022-10-03T08:19:52.554Z,15.73
2022-10-03T08:22:31.373Z,15.67
2022-10-03T08:25:17.009Z,15.34
2022-10-03T08:27:58.799Z,15.47
2022-10-03T08:30:28.877Z,15.69
2022-10-03T08:33:17.011Z,15.73
2022-10-03T08:36:33.601Z,16.10
2022-10-03T08:39:16.431Z,15.87
2022-10-03T08:42:17.619Z,16.79
2022-10-03T08:45:24.930Z,17.05
2022-10-03T08:48:24.989Z,16.86
2022-10-03T08:51:12.226Z,16.50
2022-10-03T08:54:05.631Z,17.02
2022-10-03T08:56:52.680Z,17.03
2022-10-03T08:59:44.826Z,16.73
2022-10-03T09:02:43.875Z,16.74
2022-10-03T09:05:42.261Z,17.45
2022-10-03T09:08:48.074Z,17.46
2022-10-03T09:11:35.666Z,17.35
2022-10-03T09:14:31.347Z,17.95
2022-10-03T09:17:09.577Z,18.10
2022-10-03T09:19:54.826Z,18.76
2022-10-03T09:22:37.611Z,19.30
2022-10-03T09:25:23.594Z,19.45
2022-10-03T09:28:25.527Z,18.95
2022-10-03T09:31:03.824Z,18.99
2022-10-03T09:34:07.821Z,19.06
2022-10-03T09:37:11.470Z,19.28
2022-10-03T09:40:17.015Z,18.93
2022-10-03T09:43:08.739Z,18.42
2022-10-03T09:46:01.974Z,18.90
2022-10-03T09:49:02.088Z,18.82
2022-10-03T09:51:43.347Z,18.82
2022-10-03T09:54:24.758Z,19.39
2022-10-03T09:57:06.215Z,19.57
2022-10-03T09:59:53.561Z,19.30
2022-10-03T10:02:57.534Z,19.64
2022-10-03T10:05:41.086Z,19.83
2022-10-03T10:08:31.059Z,19.25
2022-10-03T10:11:12.939Z,19.22
2022-10-03T10:14:10.693Z,19.42
2022-10-03T10:17:10.589Z,19.30
2022-10-03T10:20:05.696Z,19.92
2022-10-03T10:23:02.913Z,19.87
2022-10-03T10:25:50.119Z,19.77
2022-10-03T10:28:45.494Z,19.51
2022-10-03T10:31:53.040Z,19.53
2022-10-03T10:34:53.124Z,20.42
2022-10-03T10:38:02.483Z,20.32
2022-10-03T10:41:23.913Z,20.11
2022-10-03T10:44:30.290Z,19.97
2022-10-03T10:47:39.651Z,20.40
2022-10-03T10:50:37.356Z,20.95
2022-10-03T10:53:42.735Z,20.82
2022-10-03T10:56:35.225Z,21.49
2022-10-03T10:59:54.990Z,21.06
2022-10-03T11:02:59.231Z,21.64
2022-10-03T11:05:52.783Z,22.30
2022-10-03T11:09:05.668Z,22.64
2022-10-03T11:11:53.519Z,22.96
2022-10-03T11:14:46.892Z,22.62
2022-10-03T11:17:39.109Z,20.98
2022-10-03T11:20:31.676Z,20.89
2022-10-03T11:23:29.795Z,21.06
2022-10-03T11:26:31.149Z,20.67
2022-10-03T11:29:40.942Z,20.98
2022-10-03T11:32:33.075Z,21.12
2022-10-03T11:35:34.277Z,22.17
2022-10-03T11:38:05.500Z,22.13
2022-10-03T11:40:45.269Z,22.06
2022-10-03T11:43:46.110Z,22.36
2022-10-03T11:46:31.052Z,22.24
2022-10-03T11:49:02.575Z,22.42
2022-10-03T11:51:43.169Z,22.44
2022-10-03T11:54:31.195Z,21.48
2022-10-03T11:57:09.076Z,21.94
2022-10-03T11:59:48.046Z,20.79
2022-10-03T12:02:21.327Z,20.46
2022-10-03T12:04:55.989Z,21.34
2022-10-03T12:07:58.378Z,22.26
2022-10-03T12:10:35.510Z,22.72
2022-10-03T12:13:08.771Z,22.24
2022-10-03T12:15:39.378Z,20.91
2022-10-03T12:18:11.075Z,21.17
2022-10-03T12:21:01.645Z,21.93
2022-10-03T12:23:45.399Z,21.66
2022-10-03T12:26:18.041Z,22.24
2022-10-03T12:28:52.071Z,22.54
2022-10-03T12:31:24.736Z,21.15
2022-10-03T12:33:55.669Z,21.13
2022-10-03T12:36:28.877Z,21.48
2022-10-03T12:39:03.650Z,21.91
2022-10-03T12:41:57.612Z,21.48
2022-10-03T12:44:37.283Z,21.80
2022-10-03T12:47:21.478Z,22.32
2022-10-03T12:49:59.382Z,22.92
2022-10-03T12:52:30.237Z,23.19
2022-10-03T12:55:10.029Z,23.04
2022-10-03T12:57:49.914Z,22.59
2022-10-03T13:00:22.254Z,22.66
2022-10-03T13:03:02.800Z,22.63
2022-10-03T13:05:38.246Z,22.48
2022-10-03T13:08:17.869Z,22.03
2022-10-03T13:10:49.369Z,22.56
2022-10-03T13:13:25.117Z,23.13
2022-10-03T13:16:19.697Z,21.92
2022-10-03T13:18:54.467Z,22.15
2022-10-03T13:21:45.013Z,21.73
2022-10-03T13:24:22.626Z,21.90
2022-10-03T13:26:55.838Z,22.26
2022-10-03T13:29:27.433Z,22.21
2022-10-03T13:32:12.052Z,22.94
2022-10-03T13:34:48.841Z,23.49
2022-10-03T13:37:22.386Z,23.67
2022-10-03T13:39:53.119Z,22.71
2022-10-03T13:42:23.507Z,22.44
2022-10-03T13:44:55.304Z,22.97
2022-10-03T13:47:46.937Z,22.53
2022-10-03T13:50:18.342Z,23.29
2022-10-03T13:52:49.933Z,24.06
2022-10-03T13:55:27.765Z,24.10
2022-10-03T13:58:20.357Z,24.07
2022-10-03T14:00:59.873Z,24.05
2022-10-03T14:03:34.583Z,23.63
2022-10-03T14:06:10.866Z,23.65
2022-10-03T14:09:01.303Z,24.87
2022-10-03T14:11:38.678Z,24.76
2022-10-03T14:14:25.013Z,24.17
2022-10-03T14:17:00.674Z,23.07
2022-10-03T14:19:35.205Z,23.23
2022-10-03T14:22:12.638Z,23.50
2022-10-03T14:24:48.674Z,24.05
2022-10-03T14:27:37.516Z,23.82
2022-10-03T14:30:09.887Z,23.35
2022-10-03T14:32:47.631Z,23.36
2022-10-03T14:35:37.890Z,23.14
2022-10-03T14:38:54.190Z,22.64
2022-10-03T14:41:25.934Z,22.39
2022-10-03T14:43:56.451Z,22.54
2022-10-03T14:46:26.999Z,22.50
2022-10-03T14:48:58.737Z,21.56
2022-10-03T14:51:31.765Z,21.93
2022-10-03T14:54:02.762Z,21.59
2022-10-03T14:56:34.134Z,21.52
2022-10-03T14:59:04.701Z,21.19
2022-10-03T15:01:32.708Z,21.29
2022-10-03T15:04:04.053Z,21.90
2022-10-03T15:06:36.263Z,22.44
2022-10-03T15:09:06.835Z,21.96
2022-10-03T15:11:37.160Z,21.98
2022-10-03T15:14:06.980Z,21.65
2022-10-03T15:16:37.259Z,22.02
2022-10-03T15:19:10.159Z,22.25
2022-10-03T15:21:43.786Z,21.79
2022-10-03T15:24:14.692Z,22.06
2022-10-03T15:26:42.788Z,22.11
2022-10-03T15:29:16.230Z,22.44
2022-10-03T15:31:46.553Z,22.67
2022-10-03T15:34:18.242Z,22.39
2022-10-03T15:36:50.637Z,21.89
2022-10-03T15:39:22.349Z,21.79
2022-10-03T15:41:54.256Z,21.91
2022-10-03T15:44:26.809Z,21.32
2022-10-03T15:46:56.813Z,21.29
2022-10-03T15:49:27.273Z,21.22
2022-10-03T15:51:57.316Z,20.79
2022-10-03T15:54:28.939Z,20.65
2022-10-03T15:56:58.324Z,20.31
2022-10-03T15:59:29.957Z,20.68
2022-10-03T16:01:58.954Z,20.59
2022-10-03T16:04:29.025Z,20.95
2022-10-03T16:07:03.941Z,20.90
2022-10-03T16:09:36.469Z,20.77
2022-10-03T16:12:23.276Z,20.78
2022-10-03T16:14:52.749Z,20.94
2022-10-03T16:17:22.674Z,20.66
2022-10-03T16:19:54.223Z,20.58
2022-10-03T16:22:25.934Z,20.74
2022-10-03T16:25:05.481Z,20.74
2022-10-03T16:27:35.840Z,20.54
2022-10-03T16:30:19.004Z,20.64
2022-10-03T16:32:51.303Z,20.42
2022-10-03T16:35:38.073Z,20.23
2022-10-03T16:38:10.249Z,20.10
2022-10-03T16:40:38.911Z,19.81
2022-10-03T16:43:09.732Z,19.56
2022-10-03T16:45:41.902Z,19.54
2022-10-03T16:48:35.716Z,19.52
2022-10-03T16:51:04.352Z,19.50
2022-10-03T16:53:33.875Z,19.23
2022-10-03T16:56:07.151Z,19.00
2022-10-03T16:58:39.302Z,18.84
2022-10-03T17:01:26.319Z,18.69
2022-10-03T17:03:59.719Z,18.60
2022-10-03T17:06:30.329Z,18.54
2022-10-03T17:09:04.550Z,18.33
2022-10-03T17:11:37.082Z,18.31
2022-10-03T17:14:07.836Z,18.05
2022-10-03T17:16:40.063Z,18.04
2022-10-03T17:19:16.809Z,17.92
2022-10-03T17:21:53.778Z,17.74
2022-10-03T17:24:40.482Z,17.83
2022-10-03T17:27:15.229Z,17.64
2022-10-03T17:29:46.631Z,17.69
2022-10-03T17:32:20.318Z,17.61
2022-10-03T17:34:53.148Z,17.56
2022-10-03T17:37:45.071Z,17.11
2022-10-03T17:40:20.157Z,17.37
2022-10-03T17:42:54.185Z,17.37
2022-10-03T17:45:40.228Z,17.03
2022-10-03T17:48:13.433Z,17.10
2022-10-03T17:50:53.478Z,17.13
2022-10-03T17:53:23.401Z,16.93
2022-10-03T17:55:58.277Z,16.90
2022-10-03T17:58:29.508Z,16.91
2022-10-03T18:01:04.034Z,16.93
2022-10-03T18:03:35.913Z,16.38
2022-10-03T18:06:35.829Z,16.20
2022-10-03T18:09:10.350Z,16.34
2022-10-03T18:11:41.982Z,16.32
2022-10-03T18:14:16.446Z,16.26
2022-10-03T18:16:47.687Z,16.19
2022-10-03T18:19:34.575Z,16.24
2022-10-03T18:22:09.986Z,16.14
2022-10-03T18:24:59.210Z,15.78
2022-10-03T18:28:05.749Z,15.97
2022-10-03T18:30:37.049Z,15.74
2022-10-03T18:33:06.626Z,15.76
2022-10-03T18:35:36.511Z,15.70
2022-10-03T18:38:13.259Z,15.46
2022-10-03T18:40:48.631Z,15.62
2022-10-03T18:43:36.898Z,15.64
2022-10-03T18:46:12.219Z,15.75
2022-10-03T18:48:57.824Z,15.64
2022-10-03T18:51:37.494Z,15.64
2022-10-03T18:54:10.750Z,15.58
2022-10-03T18:56:39.213Z,15.52
2022-10-03T18:59:16.667Z,15.18
2022-10-03T19:01:53.219Z,15.23
2022-10-03T19:04:32.567Z,15.13
2022-10-03T19:07:02.453Z,14.97
2022-10-03T19:09:34.865Z,14.69
2022-10-03T19:12:07.450Z,14.90
2022-10-03T19:14:41.477Z,14.69
2022-10-03T19:17:23.231Z,14.51
2022-10-03T19:19:58.587Z,14.60
2022-10-03T19:22:30.087Z,14.73
2022-10-03T19:25:00.588Z,14.54
2022-10-03T19:27:41.145Z,14.39
2022-10-03T19:30:12.570Z,14.57
2022-10-03T19:32:50.659Z,14.60
2022-10-03T19:35:21.222Z,14.34
2022-10-03T19:37:51.787Z,14.42
2022-10-03T19:40:50.207Z,14.27
2022-10-03T19:43:43.018Z,14.46
2022-10-03T19:46:22.405Z,14.47
2022-10-03T19:48:53.723Z,14.32
2022-10-03T19:51:25.734Z,14.30
2022-10-03T19:53:56.571Z,14.30
2022-10-03T19:56:26.446Z,14.26
2022-10-03T19:59:04.666Z,14.15
2022-10-03T20:01:44.013Z,13.95
2022-10-03T20:04:12.462Z,13.87
2022-10-03T20:06:43.218Z,13.73
2022-10-03T20:09:21.081Z,14.02
2022-10-03T20:11:50.103Z,14.17
2022-10-03T20:14:23.604Z,14.16
2022-10-03T20:16:53.593Z,14.20
2022-10-03T20:19:24.902Z,14.09
2022-10-03T20:21:54.366Z,13.77
2022-10-03T20:24:27.888Z,13.69
2022-10-03T20:27:06.295Z,13.89
2022-10-03T20:29:38.747Z,13.90
2022-10-03T20:32:13.337Z,13.59
2022-10-03T20:34:41.885Z,13.85
2022-10-03T20:37:23.845Z,13.93
2022-10-03T20:39:52.833Z,13.89
2022-10-03T20:42:26.022Z,13.71
2022-10-03T20:44:59.623Z,13.60
2022-10-03T20:47:48.218Z,13.63
2022-10-03T20:50:23.292Z,13.67
2022-10-03T20:52:54.137Z,13.67
2022-10-03T20:55:25.141Z,13.66
2022-10-03T20:58:00.523Z,13.67
2022-10-03T21:00:29.878Z,13.77
2022-10-03T21:03:02.671Z,13.74
2022-10-03T21:05:36.066Z,13.44
2022-10-03T21:08:05.840Z,13.48
2022-10-03T21:10:37.070Z,13.56
2022-10-03T21:13:08.226Z,13.55
2022-10-03T21:15:40.969Z,13.25
2022-10-03T21:18:21.921Z,13.21
2022-10-03T21:20:52.106Z,13.23
2022-10-03T21:23:23.701Z,13.19
2022-10-03T21:25:53.770Z,13.15
2022-10-03T21:28:26.966Z,13.31
2022-10-03T21:31:24.117Z,13.06
2022-10-03T21:33:58.361Z,13.28
2022-10-03T21:36:28.074Z,13.26
2022-10-03T21:39:02.271Z,13.02
2022-10-03T21:41:36.189Z,12.92
2022-10-03T21:44:06.365Z,12.78
2022-10-03T21:46:39.849Z,12.72
2022-10-03T21:49:27.709Z,12.89
2022-10-03T21:52:23.610Z,13.09
2022-10-03T21:54:59.650Z,12.89
2022-10-03T21:57:35.255Z,12.80
2022-10-03T22:00:12.015Z,12.93
2022-10-03T22:02:47.879Z,12.96
2022-10-03T22:05:25.298Z,13.00
2022-10-03T22:07:53.131Z,12.96
2022-10-03T22:10:22.576Z,12.87
2022-10-03T22:12:52.861Z,12.88
2022-10-03T22:15:26.035Z,13.04
2022-10-03T22:17:56.489Z,12.89
2022-10-03T22:20:27.174Z,12.72
2022-10-03T22:23:00.789Z,12.80
2022-10-03T22:25:40.796Z,12.98
2022-10-03T22:28:14.664Z,12.92
2022-10-03T22:30:47.392Z,12.98
2022-10-03T22:33:19.665Z,12.90
2022-10-03T22:35:53.859Z,12.98
2022-10-03T22:38:24.477Z,13.04
2022-10-03T22:40:52.436Z,12.62
2022-10-03T22:43:20.873Z,12.81
2022-10-03T22:45:51.720Z,12.85
2022-10-03T22:48:22.205Z,12.87
2022-10-03T22:50:52.265Z,12.80
2022-10-03T22:53:23.551Z,12.88
2022-10-03T22:55:53.620Z,12.68
2022-10-03T22:58:21.842Z,12.61
2022-10-03T23:00:52.316Z,12.53
2022-10-03T23:03:22.089Z,12.35
2022-10-03T23:06:17.577Z,12.71
2022-10-03T23:08:51.170Z,12.61
2022-10-03T23:11:23.251Z,12.68
2022-10-03T23:13:51.420Z,12.60
2022-10-03T23:16:31.837Z,12.55
2022-10-03T23:19:08.925Z,12.54
2022-10-03T23:21:45.605Z,12.46
2022-10-03T23:24:17.495Z,12.15
2022-10-03T23:27:01.631Z,12.43
2022-10-03T23:29:29.413Z,12.56
2022-10-03T23:32:02.110Z,12.54
2022-10-03T23:35:04.327Z,12.55
2022-10-03T23:37:43.993Z,12.48
2022-10-03T23:40:36.367Z,12.48
2022-10-03T23:43:24.108Z,12.45
2022-10-03T23:45:53.225Z,12.51
2022-10-03T23:48:23.354Z,12.56
2022-10-03T23:50:53.678Z,12.30
2022-10-03T23:53:27.536Z,12.40
2022-10-03T23:55:55.739Z,12.39
2022-10-03T23:58:27.326Z,12.24
